Time;durP1;ratioP1;P1;durP2;ratioP2;P2;SDS_P1;SDS_P2;PMS_P1;PMS_P2;Temp;Humidity;BMP_temperature;BMP_pressure;BME280_temperature;BME280_humidity;BME280_pressure;Samples;Min_cycle;Max_cycle;Signal;HPM_P1;HPM_P2
2021/12/28 00:00:57;;;;;;;468.67;35.73;;;5.20;99.90;;;;;;4987797;28;20479;-74
2021/12/28 00:03:24;;;;;;;448.37;38.80;;;5.20;99.90;;;;;;4991406;28;20514;-75
2021/12/28 00:05:51;;;;;;;288.90;32.00;;;5.20;99.90;;;;;;4994503;28;20490;-74
2021/12/28 00:08:19;;;;;;;529.83;39.57;;;5.20;99.90;;;;;;4989220;28;20470;-75
2021/12/28 00:10:46;;;;;;;419.93;39.83;;;5.30;99.90;;;;;;4975099;28;20492;-74
2021/12/28 00:13:13;;;;;;;482.57;40.00;;;5.30;99.90;;;;;;4974630;28;20476;-74
2021/12/28 00:15:49;;;;;;;489.53;41.23;;;5.30;99.90;;;;;;4985240;28;20532;-74
2021/12/28 00:18:16;;;;;;;486.73;42.00;;;5.30;99.90;;;;;;4979065;28;20462;-74
2021/12/28 00:20:46;;;;;;;544.07;50.43;;;5.30;99.90;;;;;;4992911;28;20483;-74
2021/12/28 00:23:18;;;;;;;525.17;42.30;;;5.30;99.90;;;;;;4993831;28;20541;-74
2021/12/28 00:25:45;;;;;;;446.33;39.93;;;5.30;99.90;;;;;;4972619;28;20949;-75
2021/12/28 00:28:12;;;;;;;593.90;48.13;;;5.30;99.90;;;;;;4973702;28;20503;-74
2021/12/28 00:30:41;;;;;;;627.70;51.43;;;5.30;99.90;;;;;;4980714;28;20445;-74
2021/12/28 00:33:08;;;;;;;507.37;42.23;;;5.40;99.90;;;;;;4961616;28;21242;-75
2021/12/28 00:35:38;;;;;;;391.17;38.97;;;5.30;99.90;;;;;;4990426;28;20455;-75
2021/12/28 00:38:06;;;;;;;349.30;36.27;;;5.40;99.90;;;;;;4993471;28;20447;-75
2021/12/28 00:40:34;;;;;;;351.17;33.97;;;5.40;99.90;;;;;;4988912;28;20541;-75
2021/12/28 00:43:01;;;;;;;279.13;30.90;;;5.50;99.90;;;;;;4993221;28;20887;-75
2021/12/28 00:45:28;;;;;;;337.63;30.77;;;5.60;99.90;;;;;;4977691;28;20460;-75
2021/12/28 00:47:57;;;;;;;224.77;31.37;;;5.70;99.90;;;;;;4975460;28;20452;-74
2021/12/28 00:50:25;;;;;;;196.00;29.23;;;5.80;99.90;;;;;;4974258;28;20460;-74
2021/12/28 00:52:52;;;;;;;134.17;28.70;;;5.80;99.90;;;;;;4974513;28;20492;-75
2021/12/28 00:55:19;;;;;;;129.57;28.60;;;5.80;99.90;;;;;;4985052;28;20459;-74
2021/12/28 00:57:47;;;;;;;108.40;30.37;;;5.90;99.90;;;;;;4988520;28;20455;-75
2021/12/28 01:00:16;;;;;;;118.83;30.60;;;5.90;99.90;;;;;;4985028;28;21010;-75
2021/12/28 01:02:43;;;;;;;97.20;27.60;;;5.90;99.90;;;;;;4986636;28;21007;-74
2021/12/28 01:05:12;;;;;;;96.23;28.27;;;6.00;99.90;;;;;;4993210;28;20535;-74
2021/12/28 01:07:39;;;;;;;234.67;31.10;;;6.00;99.90;;;;;;4984711;28;20527;-75
2021/12/28 01:10:09;;;;;;;480.50;42.57;;;5.90;99.90;;;;;;4973599;28;20460;-74
2021/12/28 01:12:36;;;;;;;444.13;41.40;;;5.90;99.90;;;;;;4980007;28;20534;-75
2021/12/28 01:15:06;;;;;;;146.87;32.70;;;5.80;99.90;;;;;;4973804;28;20487;-74
2021/12/28 01:17:33;;;;;;;476.73;42.73;;;5.80;99.90;;;;;;4988267;28;20480;-74
2021/12/28 01:19:59;;;;;;;511.47;43.00;;;5.80;99.90;;;;;;4983433;28;20927;-75
2021/12/28 01:22:27;;;;;;;345.00;36.47;;;5.80;99.90;;;;;;4980541;28;20484;-75
2021/12/28 01:24:54;;;;;;;189.60;31.20;;;5.80;99.90;;;;;;4985390;28;20463;-74
2021/12/28 01:27:21;;;;;;;462.90;39.60;;;5.80;99.90;;;;;;4980457;28;20487;-75
2021/12/28 01:29:48;;;;;;;348.83;37.87;;;5.80;99.90;;;;;;4977579;28;20483;-75
2021/12/28 01:32:14;;;;;;;319.70;37.67;;;5.80;99.90;;;;;;4983726;28;20475;-74
2021/12/28 01:34:42;;;;;;;270.77;35.60;;;5.80;99.90;;;;;;4973276;28;20519;-75
2021/12/28 01:37:09;;;;;;;200.90;32.77;;;5.80;99.90;;;;;;4977109;28;20471;-75
2021/12/28 01:39:37;;;;;;;120.60;31.80;;;5.90;99.90;;;;;;4977319;28;20499;-75
2021/12/28 01:42:05;;;;;;;106.67;31.53;;;5.90;99.90;;;;;;4975951;28;20546;-75
2021/12/28 01:44:33;;;;;;;109.37;29.10;;;6.00;99.90;;;;;;4977275;28;20456;-75
2021/12/28 01:47:00;;;;;;;142.40;33.23;;;6.10;99.90;;;;;;4982653;28;20508;-75
2021/12/28 01:49:26;;;;;;;143.20;31.93;;;6.20;99.90;;;;;;4993669;28;20483;-75
2021/12/28 01:51:54;;;;;;;159.93;33.40;;;6.20;99.90;;;;;;4990861;28;21003;-75
2021/12/28 01:54:21;;;;;;;205.17;35.80;;;6.20;99.90;;;;;;4973908;28;20511;-75
2021/12/28 01:56:50;;;;;;;205.07;33.43;;;6.30;99.90;;;;;;4973103;28;20459;-74
2021/12/28 01:59:18;;;;;;;230.60;35.27;;;6.30;99.90;;;;;;4987665;28;20498;-74
2021/12/28 02:01:46;;;;;;;298.97;34.97;;;6.30;99.90;;;;;;4983642;28;20482;-75
2021/12/28 02:04:15;;;;;;;297.97;36.43;;;6.30;99.90;;;;;;4983082;28;20456;-74
2021/12/28 02:06:41;;;;;;;375.20;42.50;;;6.30;99.90;;;;;;4974320;28;20456;-75
2021/12/28 02:09:08;;;;;;;444.07;43.80;;;6.30;99.90;;;;;;4972767;28;20492;-74
2021/12/28 02:11:35;;;;;;;439.70;43.97;;;6.30;99.90;;;;;;4981034;28;20447;-74
2021/12/28 02:14:05;;;;;;;352.30;40.83;;;6.30;99.90;;;;;;4977940;28;20460;-75
2021/12/28 02:16:32;;;;;;;283.50;37.50;;;6.30;99.90;;;;;;4974229;28;20554;-75
2021/12/28 02:19:01;;;;;;;383.60;40.23;;;6.30;99.90;;;;;;4975112;28;20436;-75
2021/12/28 02:21:31;;;;;;;219.03;35.13;;;6.30;99.90;;;;;;4992756;28;20515;-75
2021/12/28 02:23:57;;;;;;;145.97;34.20;;;6.30;99.90;;;;;;4975216;28;20456;-74
2021/12/28 02:26:24;;;;;;;123.40;31.10;;;6.30;99.90;;;;;;4993005;28;20510;-75
2021/12/28 02:28:51;;;;;;;144.33;34.63;;;6.30;99.90;;;;;;4980847;28;20875;-74
2021/12/28 02:31:18;;;;;;;115.43;32.53;;;6.30;99.90;;;;;;4984709;28;20519;-74
2021/12/28 02:33:48;;;;;;;111.20;33.67;;;6.40;99.90;;;;;;4984732;28;20479;-75
2021/12/28 02:36:15;;;;;;;122.90;33.40;;;6.40;99.90;;;;;;4981395;28;20553;-74
2021/12/28 02:38:44;;;;;;;123.97;32.13;;;6.50;99.90;;;;;;4972513;28;20514;-74
2021/12/28 02:41:11;;;;;;;117.37;32.73;;;6.50;99.90;;;;;;4975981;28;20882;-75
2021/12/28 02:43:39;;;;;;;120.77;32.57;;;6.50;99.90;;;;;;4976965;28;20567;-75
2021/12/28 02:46:08;;;;;;;118.07;32.10;;;6.50;99.90;;;;;;4983358;28;20483;-74
2021/12/28 02:48:37;;;;;;;112.23;32.30;;;6.50;99.90;;;;;;4974498;28;20460;-75
2021/12/28 02:51:07;;;;;;;112.40;32.57;;;6.50;99.90;;;;;;4973142;28;20452;-75
2021/12/28 02:53:34;;;;;;;116.07;33.40;;;6.60;99.90;;;;;;4986879;28;20483;-75
2021/12/28 02:56:05;;;;;;;141.23;34.50;;;6.60;99.90;;;;;;4988140;28;21002;-75
2021/12/28 02:58:34;;;;;;;137.70;33.10;;;6.60;99.90;;;;;;4985747;28;20459;-75
2021/12/28 03:01:04;;;;;;;192.83;31.97;;;6.60;99.90;;;;;;4979274;28;20491;-75
2021/12/28 03:03:33;;;;;;;469.00;41.73;;;6.50;99.90;;;;;;4983341;28;20475;-74
2021/12/28 03:06:02;;;;;;;398.07;40.80;;;6.50;99.90;;;;;;4976096;28;21272;-74
2021/12/28 03:08:30;;;;;;;505.43;44.00;;;6.50;99.90;;;;;;4990200;28;20507;-75
2021/12/28 03:10:59;;;;;;;536.37;47.20;;;6.50;99.90;;;;;;4981940;28;20535;-74
2021/12/28 03:13:29;;;;;;;562.37;46.30;;;6.50;99.90;;;;;;4994552;28;20998;-74
2021/12/28 03:15:56;;;;;;;540.17;47.83;;;6.40;99.90;;;;;;4979203;28;20452;-75
2021/12/28 03:18:23;;;;;;;546.90;46.37;;;6.40;99.90;;;;;;4970335;28;20464;-75
2021/12/28 03:20:50;;;;;;;470.50;43.47;;;6.40;99.90;;;;;;4976833;28;20488;-75
2021/12/28 03:23:19;;;;;;;384.70;38.40;;;6.40;99.90;;;;;;4989908;28;20474;-75
2021/12/28 03:25:46;;;;;;;316.80;39.37;;;6.40;99.90;;;;;;4984746;28;20460;-75
2021/12/28 03:28:17;;;;;;;133.80;32.10;;;6.40;99.90;;;;;;4967184;28;20952;-75
2021/12/28 03:30:45;;;;;;;103.27;30.27;;;6.30;99.90;;;;;;4976202;28;21125;-75
2021/12/28 03:33:12;;;;;;;125.43;34.10;;;6.30;99.90;;;;;;4983399;28;20475;-75
2021/12/28 03:35:39;;;;;;;96.80;28.87;;;6.30;99.90;;;;;;4976340;28;20460;-75
2021/12/28 03:38:06;;;;;;;113.23;31.70;;;6.30;99.90;;;;;;4976977;28;20526;-75
2021/12/28 03:40:34;;;;;;;87.93;29.07;;;6.30;99.90;;;;;;4979812;28;20505;-75
2021/12/28 03:43:01;;;;;;;83.57;29.10;;;6.30;99.90;;;;;;4986684;28;20522;-75
2021/12/28 03:45:28;;;;;;;90.70;30.67;;;6.30;99.90;;;;;;4985609;28;20979;-75
2021/12/28 03:47:56;;;;;;;91.37;28.57;;;6.40;99.90;;;;;;4992578;28;20590;-75
2021/12/28 03:50:25;;;;;;;82.03;27.73;;;6.40;99.90;;;;;;4994879;28;20486;-75
2021/12/28 03:52:53;;;;;;;74.33;27.37;;;6.40;99.90;;;;;;4985157;28;20486;-75
2021/12/28 03:55:20;;;;;;;73.90;26.87;;;6.40;99.90;;;;;;4991250;28;20555;-74
2021/12/28 03:57:46;;;;;;;72.83;27.70;;;6.40;99.90;;;;;;4983356;28;21051;-75
2021/12/28 04:00:16;;;;;;;88.97;27.83;;;6.40;99.90;;;;;;4978555;28;20455;-75
2021/12/28 04:02:42;;;;;;;76.13;27.77;;;6.40;99.90;;;;;;4969528;28;20522;-75
2021/12/28 04:05:11;;;;;;;76.67;27.10;;;6.40;99.90;;;;;;4984806;28;20522;-75
2021/12/28 04:07:38;;;;;;;79.57;26.57;;;6.40;99.90;;;;;;4993195;28;20455;-75
2021/12/28 04:10:09;;;;;;;75.40;26.47;;;6.40;99.90;;;;;;4975784;28;20478;-74
2021/12/28 04:12:36;;;;;;;80.90;26.70;;;6.40;99.90;;;;;;4982743;28;20475;-74
2021/12/28 04:15:04;;;;;;;67.33;25.17;;;6.40;99.90;;;;;;4995447;28;20908;-74
2021/12/28 04:17:33;;;;;;;68.97;25.47;;;6.40;99.90;;;;;;4976268;28;20436;-75
2021/12/28 04:20:00;;;;;;;84.03;26.30;;;6.40;99.90;;;;;;4975013;28;20464;-75
2021/12/28 04:22:28;;;;;;;82.40;27.50;;;6.50;99.90;;;;;;4973375;28;20541;-75
2021/12/28 04:24:55;;;;;;;71.03;27.83;;;6.50;99.90;;;;;;4994838;28;20525;-75
2021/12/28 04:27:22;;;;;;;64.20;26.07;;;6.50;99.90;;;;;;4976777;28;20460;-74
2021/12/28 04:29:48;;;;;;;73.00;26.70;;;6.50;99.90;;;;;;4974643;28;20456;-75
2021/12/28 04:32:15;;;;;;;92.13;27.90;;;6.50;99.90;;;;;;4977784;28;20578;-75
2021/12/28 04:34:42;;;;;;;61.83;25.57;;;6.40;99.90;;;;;;4958900;28;20457;-75
2021/12/28 04:37:09;;;;;;;78.23;26.33;;;6.50;99.90;;;;;;4975563;28;20959;-75
2021/12/28 04:39:37;;;;;;;62.00;24.73;;;6.50;99.90;;;;;;4975072;28;20452;-75
2021/12/28 04:42:04;;;;;;;77.37;25.93;;;6.50;99.90;;;;;;4997811;23;20674;-69
2021/12/28 04:44:31;;;;;;;71.53;26.90;;;6.50;99.90;;;;;;4966361;28;20456;-66
2021/12/28 04:46:58;;;;;;;66.93;25.50;;;6.50;99.90;;;;;;4971447;28;20455;-66
2021/12/28 04:49:26;;;;;;;84.30;28.57;;;6.50;99.90;;;;;;4971975;28;20451;-66
2021/12/28 04:51:53;;;;;;;72.00;25.30;;;6.50;99.90;;;;;;4971344;28;20539;-66
2021/12/28 04:54:20;;;;;;;78.13;27.57;;;6.50;99.90;;;;;;4971650;28;20452;-66
2021/12/28 04:56:49;;;;;;;85.37;26.60;;;6.50;99.90;;;;;;4969898;28;20526;-66
2021/12/28 04:59:16;;;;;;;70.87;26.30;;;6.50;99.90;;;;;;4956320;28;20461;-66
2021/12/28 05:01:43;;;;;;;75.77;26.40;;;6.50;99.90;;;;;;4968278;28;20476;-66
2021/12/28 05:04:10;;;;;;;72.00;27.07;;;6.50;99.90;;;;;;4970168;28;20550;-66
2021/12/28 05:06:37;;;;;;;72.73;25.57;;;6.50;99.90;;;;;;4967149;28;20933;-66
2021/12/28 05:09:06;;;;;;;75.90;26.60;;;6.50;99.90;;;;;;4960304;28;20674;-66
2021/12/28 05:11:33;;;;;;;63.70;24.50;;;6.40;99.90;;;;;;4970779;28;21011;-66
2021/12/28 05:14:02;;;;;;;65.17;23.60;;;6.40;99.90;;;;;;4971070;28;20534;-66
2021/12/28 05:16:30;;;;;;;73.10;25.63;;;6.40;99.90;;;;;;4968084;28;20460;-66
2021/12/28 05:18:58;;;;;;;68.10;24.07;;;6.50;99.90;;;;;;4970541;28;20534;-66
2021/12/28 05:21:24;;;;;;;61.33;24.23;;;6.50;99.90;;;;;;4970545;28;20534;-66
2021/12/28 05:23:51;;;;;;;54.07;24.00;;;6.50;99.90;;;;;;4957053;28;20571;-66
2021/12/28 05:26:18;;;;;;;64.23;24.47;;;6.50;99.90;;;;;;4961979;28;20479;-66
2021/12/28 05:28:45;;;;;;;62.37;22.60;;;6.50;99.90;;;;;;4970769;28;20452;-66
2021/12/28 05:31:13;;;;;;;62.60;23.30;;;6.50;99.90;;;;;;4970522;28;20511;-66
2021/12/28 05:33:40;;;;;;;55.83;23.27;;;6.50;99.90;;;;;;4968229;28;20535;-66
2021/12/28 05:36:07;;;;;;;58.20;23.20;;;6.50;99.90;;;;;;4970122;28;20460;-65
2021/12/28 05:38:34;;;;;;;48.97;22.47;;;6.50;99.90;;;;;;4969093;28;20460;-66
2021/12/28 05:41:01;;;;;;;63.43;22.37;;;6.50;99.90;;;;;;4970969;28;20495;-66
2021/12/28 05:43:28;;;;;;;51.47;20.10;;;6.50;99.90;;;;;;4955245;28;20531;-66
2021/12/28 05:45:54;;;;;;;39.30;17.77;;;6.50;99.90;;;;;;4958065;28;20875;-66
2021/12/28 05:48:23;;;;;;;43.83;17.20;;;6.50;99.90;;;;;;4970846;28;20968;-65
2021/12/28 05:50:49;;;;;;;35.13;15.03;;;6.50;99.90;;;;;;4955946;28;20453;-66
2021/12/28 05:53:16;;;;;;;42.90;15.37;;;6.50;99.90;;;;;;4967603;28;20480;-66
2021/12/28 05:55:43;;;;;;;33.53;12.97;;;6.50;99.90;;;;;;4970807;28;20455;-65
2021/12/28 05:58:10;;;;;;;39.70;14.20;;;6.60;99.90;;;;;;4966241;28;20499;-66
2021/12/28 06:00:37;;;;;;;24.97;12.20;;;6.60;99.90;;;;;;4970271;28;20455;-66
2021/12/28 06:03:04;;;;;;;27.37;12.10;;;6.60;99.90;;;;;;4955555;28;20491;-66
2021/12/28 06:05:32;;;;;;;20.47;10.77;;;6.70;99.90;;;;;;4951523;28;20460;-66
2021/12/28 06:07:59;;;;;;;30.97;13.00;;;6.70;99.90;;;;;;4951208;28;20957;-66
2021/12/28 06:10:25;;;;;;;30.13;12.73;;;6.70;99.90;;;;;;4969182;28;20456;-65
2021/12/28 06:12:52;;;;;;;29.77;13.17;;;6.70;99.90;;;;;;4969712;28;20548;-67
2021/12/28 06:15:19;;;;;;;32.30;14.30;;;6.70;99.90;;;;;;4960468;28;20448;-67
2021/12/28 06:17:45;;;;;;;34.33;14.23;;;6.70;99.90;;;;;;4961794;28;20460;-66
2021/12/28 06:20:12;;;;;;;40.47;15.07;;;6.60;99.90;;;;;;4970470;28;20459;-67
2021/12/28 06:22:40;;;;;;;40.30;16.80;;;6.70;99.90;;;;;;4970608;28;21081;-67
2021/12/28 06:25:08;;;;;;;36.83;15.90;;;6.60;99.90;;;;;;4970124;28;20452;-66
2021/12/28 06:27:34;;;;;;;37.20;15.23;;;6.60;99.90;;;;;;4970190;28;20452;-66
2021/12/28 06:30:01;;;;;;;39.53;16.20;;;6.60;99.90;;;;;;4970252;28;20522;-66
2021/12/28 06:32:28;;;;;;;39.73;15.07;;;6.60;99.90;;;;;;4964424;28;20527;-67
2021/12/28 06:34:54;;;;;;;36.67;14.40;;;6.60;99.90;;;;;;4970564;28;20497;-65
2021/12/28 06:37:21;;;;;;;33.90;15.30;;;6.60;99.90;;;;;;4970337;28;20463;-66
2021/12/28 06:39:49;;;;;;;50.20;13.80;;;6.60;99.90;;;;;;4970985;28;20502;-66
2021/12/28 06:42:16;;;;;;;40.60;15.37;;;6.60;99.90;;;;;;4969696;28;20496;-66
2021/12/28 06:44:45;;;;;;;38.17;16.30;;;6.60;99.90;;;;;;4970894;28;20530;-66
2021/12/28 06:47:12;;;;;;;37.30;15.90;;;6.60;99.90;;;;;;4959323;28;20453;-66
2021/12/28 06:49:38;;;;;;;40.73;16.13;;;6.60;99.90;;;;;;4956607;28;20452;-67
2021/12/28 06:52:06;;;;;;;37.83;15.33;;;6.60;99.90;;;;;;4961580;28;20515;-66
2021/12/28 06:54:36;;;;;;;35.40;13.97;;;6.60;99.90;;;;;;4951458;28;20958;-66
2021/12/28 06:57:07;;;;;;;45.23;14.67;;;6.60;99.90;;;;;;4963247;28;20457;-67
2021/12/28 06:59:34;;;;;;;41.43;15.73;;;6.60;99.90;;;;;;4951412;29;20457;-66
2021/12/28 07:02:00;;;;;;;62.93;18.40;;;6.60;99.90;;;;;;4964116;28;20496;-67
2021/12/28 07:04:27;;;;;;;54.63;17.83;;;6.60;99.90;;;;;;4966622;28;20460;-66
2021/12/28 07:06:54;;;;;;;40.53;13.80;;;6.60;99.90;;;;;;4962533;28;20499;-67
2021/12/28 07:09:20;;;;;;;42.77;15.73;;;6.60;99.90;;;;;;4970051;28;20456;-67
2021/12/28 07:11:47;;;;;;;42.90;14.87;;;6.60;99.90;;;;;;4970000;28;20880;-66
2021/12/28 07:14:15;;;;;;;39.77;16.03;;;6.60;99.90;;;;;;4953655;28;20481;-67
2021/12/28 07:16:42;;;;;;;43.03;15.27;;;6.60;99.90;;;;;;4968124;28;20452;-67
2021/12/28 07:19:10;;;;;;;40.17;13.10;;;6.70;99.90;;;;;;4969386;28;20448;-66
2021/12/28 07:21:37;;;;;;;48.70;15.50;;;6.60;99.90;;;;;;4968172;28;21077;-67
2021/12/28 07:24:04;;;;;;;31.40;12.90;;;6.70;99.90;;;;;;4969900;28;20480;-66
2021/12/28 07:26:31;;;;;;;39.10;15.60;;;6.70;99.90;;;;;;4962585;28;20515;-66
2021/12/28 07:28:58;;;;;;;33.07;13.33;;;6.70;99.90;;;;;;4969728;28;20447;-67
2021/12/28 07:31:27;;;;;;;32.60;14.90;;;6.70;99.90;;;;;;4969778;28;20518;-67
2021/12/28 07:33:54;;;;;;;43.37;16.20;;;6.70;99.90;;;;;;4969545;28;20483;-67
2021/12/28 07:36:20;;;;;;;38.77;14.23;;;6.70;99.90;;;;;;4969255;28;21217;-65
2021/12/28 07:38:47;;;;;;;38.60;14.50;;;6.70;99.90;;;;;;4969603;28;20530;-66
2021/12/28 07:41:14;;;;;;;27.17;12.40;;;6.70;99.90;;;;;;4961606;28;20456;-66
2021/12/28 07:43:41;;;;;;;41.07;13.70;;;6.70;99.90;;;;;;4970518;28;21261;-67
2021/12/28 07:46:07;;;;;;;42.10;14.10;;;6.70;99.90;;;;;;4970705;28;20472;-66
2021/12/28 07:48:36;;;;;;;36.60;11.90;;;6.70;99.90;;;;;;4966733;28;20864;-67
2021/12/28 07:51:02;;;;;;;26.17;12.13;;;6.80;99.90;;;;;;4968975;28;20547;-67
2021/12/28 07:53:29;;;;;;;38.77;13.80;;;6.80;99.90;;;;;;4972791;28;21028;-67
2021/12/28 07:55:57;;;;;;;29.23;11.60;;;6.80;99.90;;;;;;4972333;28;20451;-67
2021/12/28 07:58:25;;;;;;;36.30;12.13;;;6.80;99.90;;;;;;4958356;28;20540;-66
2021/12/28 08:00:52;;;;;;;25.47;10.00;;;6.80;99.90;;;;;;4967535;28;20870;-66
2021/12/28 08:03:19;;;;;;;20.87;9.80;;;6.80;99.90;;;;;;4971362;28;21303;-67
2021/12/28 08:05:48;;;;;;;28.63;10.73;;;6.80;99.90;;;;;;4972328;28;20474;-67
2021/12/28 08:08:14;;;;;;;25.70;10.10;;;6.80;99.90;;;;;;4972446;28;20514;-67
2021/12/28 08:10:41;;;;;;;24.97;11.50;;;6.80;99.90;;;;;;4971436;28;20452;-69
2021/12/28 08:13:08;;;;;;;25.00;10.60;;;6.80;99.90;;;;;;4971750;28;20472;-67
2021/12/28 08:15:35;;;;;;;23.13;10.90;;;6.80;99.90;;;;;;4964434;28;21105;-67
2021/12/28 08:18:03;;;;;;;18.40;10.37;;;6.80;99.90;;;;;;4970135;28;20460;-66
2021/12/28 08:20:30;;;;;;;28.60;12.33;;;6.80;99.90;;;;;;4954009;28;20551;-66
2021/12/28 08:22:58;;;;;;;24.80;10.67;;;6.80;99.90;;;;;;4970837;28;20491;-67
2021/12/28 08:25:25;;;;;;;25.27;10.93;;;6.80;99.90;;;;;;4971898;28;20460;-67
2021/12/28 08:27:52;;;;;;;21.53;11.07;;;6.80;99.90;;;;;;4972026;28;20519;-67
2021/12/28 08:30:20;;;;;;;24.90;11.30;;;6.80;99.90;;;;;;4967158;28;20875;-67
2021/12/28 08:32:47;;;;;;;23.63;10.90;;;6.80;99.90;;;;;;4967873;28;20464;-67
2021/12/28 08:35:16;;;;;;;27.87;10.27;;;6.80;99.90;;;;;;4966452;28;20483;-66
2021/12/28 08:37:43;;;;;;;20.20;10.10;;;6.80;99.90;;;;;;4969603;28;20494;-67
2021/12/28 08:40:15;;;;;;;19.83;10.33;;;6.80;99.90;;;;;;4960299;28;20659;-67
2021/12/28 08:42:42;;;;;;;24.17;10.47;;;6.80;99.90;;;;;;4970476;28;20494;-67
2021/12/28 08:45:10;;;;;;;17.37;9.10;;;6.80;99.90;;;;;;4966898;28;20505;-67
2021/12/28 08:47:37;;;;;;;22.07;9.80;;;6.80;99.90;;;;;;4968742;28;20547;-66
2021/12/28 08:50:07;;;;;;;19.67;10.13;;;6.80;99.90;;;;;;4968898;28;20460;-66
2021/12/28 08:52:34;;;;;;;24.37;8.67;;;6.80;99.90;;;;;;4969786;28;20476;-66
2021/12/28 08:55:01;;;;;;;33.90;10.87;;;6.80;99.90;;;;;;4970959;28;20594;-67
2021/12/28 08:57:28;;;;;;;19.83;9.33;;;6.80;99.90;;;;;;4966956;28;21224;-66
2021/12/28 08:59:55;;;;;;;23.83;10.40;;;6.80;99.90;;;;;;4966073;28;21088;-66
2021/12/28 09:02:22;;;;;;;23.43;9.87;;;6.90;99.90;;;;;;4967783;28;20492;-67
2021/12/28 09:04:48;;;;;;;34.67;10.27;;;6.90;99.90;;;;;;4968527;28;20464;-67
2021/12/28 09:07:17;;;;;;;23.43;9.50;;;6.90;99.90;;;;;;4971708;28;20472;-67
2021/12/28 09:09:44;;;;;;;22.57;9.50;;;6.90;99.90;;;;;;4966174;28;20453;-67
2021/12/28 09:12:11;;;;;;;23.13;9.63;;;6.80;99.90;;;;;;4966209;28;20464;-67
2021/12/28 09:14:40;;;;;;;22.63;9.17;;;6.90;99.90;;;;;;4971164;28;20949;-67
2021/12/28 09:17:07;;;;;;;22.63;10.03;;;6.90;99.90;;;;;;4961470;28;20484;-67
2021/12/28 09:19:34;;;;;;;33.10;9.10;;;6.90;99.90;;;;;;4968872;28;20452;-66
2021/12/28 09:22:01;;;;;;;24.73;8.93;;;6.90;99.90;;;;;;4969067;28;20448;-67
2021/12/28 09:24:28;;;;;;;19.67;9.10;;;6.90;99.90;;;;;;4969729;28;20452;-67
2021/12/28 09:26:55;;;;;;;24.70;9.27;;;6.90;99.90;;;;;;4964229;28;20464;-68
2021/12/28 09:29:25;;;;;;;27.50;9.00;;;6.80;99.90;;;;;;4970046;28;20862;-68
2021/12/28 09:31:53;;;;;;;13.13;8.20;;;6.80;99.90;;;;;;4968746;28;20547;-68
2021/12/28 09:34:20;;;;;;;14.40;7.40;;;6.80;99.90;;;;;;4970677;28;20449;-69
2021/12/28 09:36:47;;;;;;;18.13;8.13;;;6.90;99.90;;;;;;4960850;28;20457;-68
2021/12/28 09:39:14;;;;;;;20.00;7.67;;;6.90;99.90;;;;;;4961734;28;20495;-67
2021/12/28 09:41:40;;;;;;;20.40;7.67;;;6.90;99.90;;;;;;4965165;28;20869;-67
2021/12/28 09:44:07;;;;;;;16.60;7.60;;;6.90;99.90;;;;;;4969042;28;20495;-68
2021/12/28 09:46:34;;;;;;;13.57;7.70;;;6.90;99.90;;;;;;4968444;28;20464;-67
2021/12/28 09:49:02;;;;;;;19.57;7.50;;;6.90;99.90;;;;;;4969838;28;20464;-67
2021/12/28 09:51:29;;;;;;;20.97;7.23;;;7.00;99.90;;;;;;4965956;28;20460;-67
2021/12/28 09:53:57;;;;;;;13.70;6.60;;;7.00;99.90;;;;;;4966304;28;21161;-67
2021/12/28 09:56:24;;;;;;;17.93;8.00;;;7.00;99.90;;;;;;4968864;28;20460;-68
2021/12/28 09:58:50;;;;;;;10.30;5.97;;;7.00;99.90;;;;;;4960883;28;20917;-68
2021/12/28 10:01:20;;;;;;;14.00;6.63;;;7.00;99.90;;;;;;4960859;28;20461;-67
2021/12/28 10:03:46;;;;;;;11.07;6.40;;;7.00;99.90;;;;;;4968541;28;20578;-68
2021/12/28 10:06:20;;;;;;;9.73;5.37;;;7.10;99.90;;;;;;4969724;28;21003;-68
2021/12/28 10:08:47;;;;;;;11.43;5.70;;;7.00;99.90;;;;;;4969736;28;20514;-68
2021/12/28 10:11:14;;;;;;;15.50;7.40;;;7.10;99.90;;;;;;4968671;28;20456;-68
2021/12/28 10:13:41;;;;;;;7.77;6.40;;;7.10;99.90;;;;;;4969836;28;20468;-68
2021/12/28 10:16:07;;;;;;;10.17;6.20;;;7.10;99.90;;;;;;4968667;28;20502;-67
2021/12/28 10:18:34;;;;;;;6.90;5.40;;;7.00;99.90;;;;;;4958151;28;20930;-67
2021/12/28 10:21:02;;;;;;;6.30;5.70;;;7.10;99.90;;;;;;4968619;28;20463;-68
2021/12/28 10:23:32;;;;;;;13.30;6.07;;;7.10;99.90;;;;;;4969771;28;21133;-68
2021/12/28 10:26:01;;;;;;;8.77;6.77;;;7.10;99.90;;;;;;4969398;28;20506;-68
2021/12/28 10:28:32;;;;;;;8.13;6.00;;;7.10;99.90;;;;;;4969447;28;20467;-68
2021/12/28 10:31:03;;;;;;;10.60;6.20;;;7.10;99.90;;;;;;4967317;28;21137;-67
2021/12/28 10:33:32;;;;;;;11.90;5.20;;;7.10;99.90;;;;;;4963333;28;21097;-70
2021/12/28 10:36:01;;;;;;;8.87;5.90;;;7.10;99.90;;;;;;4967961;28;20470;-67
2021/12/28 10:38:32;;;;;;;8.77;5.80;;;7.10;99.90;;;;;;4969166;28;20452;-67
2021/12/28 10:41:02;;;;;;;9.83;6.07;;;7.20;99.90;;;;;;4966951;28;20901;-66
2021/12/28 10:43:31;;;;;;;9.33;6.67;;;7.20;99.90;;;;;;4961582;28;20489;-67
2021/12/28 10:46:01;;;;;;;9.63;6.73;;;7.20;99.90;;;;;;4956956;28;20452;-66
2021/12/28 10:48:31;;;;;;;12.67;7.60;;;7.30;99.90;;;;;;4955459;28;20471;-67
2021/12/28 10:51:01;;;;;;;9.27;8.10;;;7.50;99.90;;;;;;4953714;28;20452;-66
2021/12/28 10:53:36;;;;;;;12.67;7.43;;;7.70;99.90;;;;;;4969081;28;20478;-67
2021/12/28 10:56:05;;;;;;;13.43;7.50;;;7.90;99.90;;;;;;4968650;28;21066;-67
2021/12/28 10:58:39;;;;;;;10.30;8.20;;;8.00;99.90;;;;;;4955537;28;20483;-66
2021/12/28 11:01:09;;;;;;;10.50;8.00;;;8.10;99.90;;;;;;4985013;23;20556;-76
2021/12/28 11:03:38;;;;;;;11.57;7.90;;;8.10;99.90;;;;;;4937293;28;20490;-76
2021/12/28 11:06:08;;;;;;;11.23;7.27;;;8.10;99.90;;;;;;4931206;29;20462;-75
2021/12/28 11:08:37;;;;;;;10.80;7.40;;;8.00;99.90;;;;;;4939736;29;20461;-76
2021/12/28 11:11:05;;;;;;;9.77;6.90;;;8.00;99.90;;;;;;4944682;29;20478;-76
2021/12/28 11:13:34;;;;;;;13.83;6.90;;;8.10;99.90;;;;;;4942593;28;20457;-76
2021/12/28 11:16:02;;;;;;;9.37;7.03;;;8.10;99.90;;;;;;4953739;28;20552;-76
2021/12/28 11:18:31;;;;;;;9.53;7.67;;;8.10;99.90;;;;;;4950893;28;20965;-76
2021/12/28 11:20:59;;;;;;;12.30;8.17;;;8.20;99.90;;;;;;4950009;28;20469;-76
2021/12/28 11:23:27;;;;;;;13.80;8.17;;;8.20;99.90;;;;;;4940229;29;21382;-76
2021/12/28 11:26:14;;;;;;;9.37;7.57;;;8.20;99.90;;;;;;4962642;28;20517;-76
2021/12/28 11:28:42;;;;;;;10.90;7.80;;;8.30;99.90;;;;;;4948661;29;20450;-76
2021/12/28 11:31:13;;;;;;;12.70;7.50;;;8.30;99.90;;;;;;4940708;29;20452;-77
2021/12/28 11:33:49;;;;;;;14.53;8.33;;;8.30;99.90;;;;;;4951421;29;20467;-76
2021/12/28 11:36:18;;;;;;;10.83;7.30;;;8.40;99.90;;;;;;4935098;29;20461;-76
2021/12/28 11:38:46;;;;;;;9.13;7.40;;;8.40;99.90;;;;;;4943596;28;20461;-76
2021/12/28 11:41:15;;;;;;;9.67;7.27;;;8.40;99.90;;;;;;4939688;29;20886;-75
2021/12/28 11:43:43;;;;;;;11.43;8.00;;;8.50;99.90;;;;;;4940162;29;20484;-75
2021/12/28 11:46:10;;;;;;;11.10;7.97;;;8.50;99.90;;;;;;4952380;29;20491;-75
2021/12/28 11:48:38;;;;;;;10.17;8.03;;;8.50;99.90;;;;;;4951615;29;20662;-75
2021/12/28 11:51:05;;;;;;;12.87;8.80;;;8.50;99.90;;;;;;4951417;29;20457;-75
2021/12/28 11:53:36;;;;;;;11.97;7.70;;;8.50;99.90;;;;;;4942016;29;20513;-76
2021/12/28 11:56:03;;;;;;;10.47;7.90;;;8.40;99.90;;;;;;4948126;28;20965;-75
2021/12/28 11:59:03;;;;;;;10.43;7.87;;;8.40;99.90;;;;;;4944413;28;20520;-74
2021/12/28 12:01:49;;;;;;;17.30;9.07;;;8.50;99.90;;;;;;4949738;28;20487;-74
2021/12/28 12:04:49;;;;;;;15.30;8.93;;;8.50;99.90;;;;;;4950172;28;20543;-75
2021/12/28 12:07:28;;;;;;;13.93;9.13;;;8.40;99.90;;;;;;4963536;28;20454;-74
2021/12/28 12:10:20;;;;;;;14.03;9.53;;;8.40;99.90;;;;;;4936313;28;20469;-73
2021/12/28 12:13:23;;;;;;;15.70;9.50;;;8.40;99.90;;;;;;4950069;28;20548;-75
2021/12/28 12:15:55;;;;;;;12.20;8.97;;;8.40;99.90;;;;;;4949183;28;20456;-73
2021/12/28 12:18:28;;;;;;;11.30;8.80;;;8.40;99.90;;;;;;4946776;28;20507;-76
2021/12/28 12:20:58;;;;;;;12.73;8.00;;;8.40;99.90;;;;;;4948602;28;20457;-75
2021/12/28 12:23:28;;;;;;;15.60;8.40;;;8.40;99.90;;;;;;4951159;28;20565;-75
2021/12/28 12:26:07;;;;;;;13.40;9.10;;;8.40;99.90;;;;;;4947502;28;20457;-75
2021/12/28 12:28:47;;;;;;;11.90;8.23;;;8.40;99.90;;;;;;4947270;28;20479;-74
2021/12/28 12:31:28;;;;;;;10.90;8.20;;;8.50;99.90;;;;;;4944984;29;20560;-73
2021/12/28 12:33:56;;;;;;;11.07;7.43;;;8.50;99.90;;;;;;4941734;28;20468;-77
2021/12/28 12:36:32;;;;;;;12.23;8.07;;;8.50;99.90;;;;;;4937487;29;20517;-75
2021/12/28 12:39:00;;;;;;;10.13;7.73;;;8.50;99.90;;;;;;4945610;28;20543;-75
2021/12/28 12:41:47;;;;;;;10.03;7.63;;;8.50;99.90;;;;;;4937454;29;20481;-75
2021/12/28 12:44:18;;;;;;;11.00;7.30;;;8.60;99.90;;;;;;4933897;29;20497;-74